Time,TemperatureF,DewpointF,PressureIn,WindDirection,WindDirectionDegrees,WindSpeedMPH,WindSpeedGustMPH,Humidity,HourlyPrecipIn,Conditions,Clouds,dailyrainin,SoftwareType,DateUTC
2013-06-25 00:01:00,64.4,42.6,28.32,NE,41,0.0,0.0,45,0.00,CLR,OVC,0.00,WeatherDisplay:10.37,2013-06-25 04:01:00,
2013-06-25 00:06:00,64.4,42.6,28.32,NE,41,0.0,0.0,45,0.00,CLR,OVC,0.00,WeatherDisplay:10.37,2013-06-25 04:06:00,
2013-06-25 00:11:00,64.2,42.4,28.32,NE,41,0.0,0.0,45,0.00,CLR,OVC,0.00,WeatherDisplay:10.37,2013-06-25 04:11:00,
2013-06-25 00:16:00,64.0,42.3,28.32,NE,41,0.0,0.0,45,0.00,CLR,OVC,0.00,WeatherDisplay:10.37,2013-06-25 04:16:00,
2013-06-25 00:21:00,64.0,44.5,28.32,NE,41,0.0,0.0,49,0.00,CLR,OVC,0.00,WeatherDisplay:10.37,2013-06-25 04:21:00,
2013-06-25 00:26:00,63.9,43.2,28.32,NE,41,0.0,0.0,47,0.00,CLR,OVC,0.00,WeatherDisplay:10.37,2013-06-25 04:26:00,
2013-06-25 00:31:00,63.7,43.6,28.32,NE,41,0.0,0.0,48,0.00,CLR,OVC,0.00,WeatherDisplay:10.37,2013-06-25 04:31:00,
2013-06-25 00:36:00,63.9,43.8,28.32,NE,41,0.0,0.0,48,0.00,CLR,OVC,0.00,WeatherDisplay:10.37,2013-06-25 04:36:00,
2013-06-25 00:41:00,63.9,43.8,28.32,NE,41,0.0,0.0,48,0.00,CLR,OVC,0.00,WeatherDisplay:10.37,2013-06-25 04:41:00,
2013-06-25 00:46:00,63.9,43.8,28.32,NE,41,0.0,0.0,48,0.00,CLR,OVC,0.00,WeatherDisplay:10.37,2013-06-25 04:46:00,
2013-06-25 00:51:00,63.5,42.9,28.32,NE,41,0.0,0.0,47,0.00,CLR,OVC,0.00,WeatherDisplay:10.37,2013-06-25 04:51:00,
2013-06-25 00:56:00,63.5,43.4,28.32,NE,41,0.0,0.0,48,0.00,CLR,OVC,0.00,WeatherDisplay:10.37,2013-06-25 04:56:00,
2013-06-25 01:02:00,63.5,44.0,28.32,NE,41,0.0,0.0,49,0.00,CLR,OVC,0.00,WeatherDisplay:10.37,2013-06-25 05:02:00,
2013-06-25 01:07:00,63.5,44.0,28.32,NE,41,0.0,0.0,49,0.00,CLR,OVC,0.00,WeatherDisplay:10.37,2013-06-25 05:07:00,
2013-06-25 01:12:00,63.5,44.0,28.32,NE,41,0.0,0.0,49,0.00,CLR,OVC,0.00,WeatherDisplay:10.37,2013-06-25 05:12:00,
2013-06-25 01:18:00,63.7,44.2,28.32,NE,41,0.0,0.0,49,0.00,CLR,OVC,0.00,WeatherDisplay:10.37,2013-06-25 05:18:00,
2013-06-25 01:23:00,63.5,44.0,28.32,NE,41,0.0,0.0,49,0.00,CLR,OVC,0.00,WeatherDisplay:10.37,2013-06-25 05:23:00,
2013-06-25 01:28:00,63.3,43.8,28.32,NE,41,0.0,0.0,49,0.00,CLR,OVC,0.00,WeatherDisplay:10.37,2013-06-25 05:28:00,
2013-06-25 01:34:00,63.3,43.8,28.32,NE,41,0.0,0.0,49,0.00,CLR,OVC,0.00,WeatherDisplay:10.37,2013-06-25 05:34:00,
2013-06-25 01:39:00,63.3,43.8,28.32,NE,41,0.0,0.0,49,0.00,CLR,OVC,0.00,WeatherDisplay:10.37,2013-06-25 05:39:00,
2013-06-25 01:44:00,63.1,43.7,28.32,NE,41,0.0,0.0,49,0.00,CLR,OVC,0.00,WeatherDisplay:10.37,2013-06-25 05:44:00,
2013-06-25 01:50:00,63.0,43.5,28.32,NE,41,0.0,0.0,49,0.00,CLR,OVC,0.00,WeatherDisplay:10.37,2013-06-25 05:50:00,
2013-06-25 01:56:00,62.6,42.6,28.32,NE,40,0.0,0.0,48,0.00,CLR,OVC,0.00,WeatherDisplay:10.37,2013-06-25 05:56:00,
2013-06-25 02:01:00,62.4,43.0,28.32,NE,40,0.0,0.0,49,0.00,CLR,OVC,0.00,WeatherDisplay:10.37,2013-06-25 06:01:00,
2013-06-25 02:06:00,62.2,42.8,28.32,NE,40,0.0,0.0,49,0.00,CLR,OVC,0.00,WeatherDisplay:10.37,2013-06-25 06:06:00,
2013-06-25 02:12:00,62.1,43.2,28.32,NE,40,0.0,0.0,50,0.00,CLR,OVC,0.00,WeatherDisplay:10.37,2013-06-25 06:12:00,
2013-06-25 02:17:00,61.7,42.9,28.32,NE,40,0.0,0.0,50,0.00,CLR,OVC,0.00,WeatherDisplay:10.37,2013-06-25 06:17:00,
2013-06-25 02:24:00,61.5,43.2,28.32,NE,40,0.0,0.0,51,0.00,CLR,OVC,0.00,WeatherDisplay:10.37,2013-06-25 06:24:00,
2013-06-25 02:29:00,61.5,43.7,28.32,NE,40,0.0,0.0,52,0.00,CLR,OVC,0.00,WeatherDisplay:10.37,2013-06-25 06:29:00,
2013-06-25 02:34:00,61.5,44.2,28.32,NE,40,0.0,0.0,53,0.00,CLR,OVC,0.00,WeatherDisplay:10.37,2013-06-25 06:34:00,
2013-06-25 02:40:00,61.5,44.2,28.32,NE,40,0.0,0.0,53,0.00,CLR,OVC,0.00,WeatherDisplay:10.37,2013-06-25 06:40:00,
2013-06-25 02:47:00,61.2,43.9,28.32,NE,40,0.0,0.0,53,0.00,CLR,OVC,0.00,WeatherDisplay:10.37,2013-06-25 06:47:00,
2013-06-25 02:53:00,61.0,43.7,28.32,NE,40,0.0,0.0,53,0.00,CLR,OVC,0.00,WeatherDisplay:10.37,2013-06-25 06:53:00,
2013-06-25 02:58:00,61.0,43.7,28.32,NE,40,0.0,0.0,53,0.00,CLR,OVC,0.00,WeatherDisplay:10.37,2013-06-25 06:58:00,
2013-06-25 03:04:00,60.8,43.6,28.32,NE,40,0.0,0.0,53,0.00,CLR,OVC,0.00,WeatherDisplay:10.37,2013-06-25 07:04:00,
2013-06-25 03:11:00,60.4,43.7,28.32,NE,40,0.0,0.0,54,0.00,CLR,OVC,0.00,WeatherDisplay:10.37,2013-06-25 07:11:00,
2013-06-25 03:17:00,60.1,43.4,28.32,NE,40,0.0,0.0,54,0.00,CLR,OVC,0.00,WeatherDisplay:10.37,2013-06-25 07:17:00,
2013-06-25 03:22:00,59.9,43.2,28.32,NE,40,0.0,0.0,54,0.00,CLR,OVC,0.00,WeatherDisplay:10.37,2013-06-25 07:22:00,
2013-06-25 03:27:00,59.7,43.5,28.32,NE,40,0.0,0.0,55,0.00,CLR,OVC,0.00,WeatherDisplay:10.37,2013-06-25 07:27:00,
2013-06-25 03:32:00,59.5,43.3,28.32,NE,40,0.0,0.0,55,0.00,CLR,OVC,0.00,WeatherDisplay:10.37,2013-06-25 07:32:00,
2013-06-25 03:38:00,59.4,43.7,28.32,NE,40,0.0,0.0,56,0.00,CLR,OVC,0.00,WeatherDisplay:10.37,2013-06-25 07:38:00,
2013-06-25 03:43:00,59.2,43.9,28.32,NE,40,0.0,0.0,57,0.00,CLR,OVC,0.00,WeatherDisplay:10.37,2013-06-25 07:43:00,
2013-06-25 03:48:00,59.2,43.9,28.32,NE,40,0.0,0.0,57,0.00,CLR,OVC,0.00,WeatherDisplay:10.37,2013-06-25 07:48:00,
2013-06-25 03:54:00,59.0,43.8,28.32,NE,40,0.0,0.0,57,0.00,CLR,OVC,0.00,WeatherDisplay:10.37,2013-06-25 07:54:00,
2013-06-25 15:28:00,91.2,31.5,28.29,ENE,76,2.2,8.1,12,0.00,CLR,OVC,0.00,WeatherDisplay:10.37,2013-06-25 19:28:00,
2013-06-25 15:33:00,91.9,32.1,28.29,East,97,0.0,0.0,12,0.00,CLR,OVC,0.00,WeatherDisplay:10.37,2013-06-25 19:33:00,
2013-06-25 15:38:00,92.1,32.2,28.29,NNW,327,0.0,2.3,12,0.00,CLR,OVC,0.00,WeatherDisplay:10.37,2013-06-25 19:38:00,
2013-06-25 15:43:00,91.6,31.8,28.29,NNW,334,0.0,3.5,12,0.00,CLR,OVC,0.00,WeatherDisplay:10.37,2013-06-25 19:43:00,
2013-06-25 15:48:00,91.4,31.6,28.29,SSW,195,2.7,0.0,12,0.00,CLR,OVC,0.00,WeatherDisplay:10.37,2013-06-25 19:48:00,
2013-06-25 15:53:00,92.1,32.2,28.29,NW,326,3.6,3.6,12,0.00,CLR,OVC,0.00,WeatherDisplay:10.37,2013-06-25 19:53:00,
2013-06-25 15:58:00,90.1,30.7,28.29,North,357,0.0,0.0,12,0.00,CLR,OVC,0.00,WeatherDisplay:10.37,2013-06-25 19:58:00,
2013-06-25 16:03:00,88.0,31.0,28.29,North,357,0.0,0.0,13,0.00,CLR,OVC,0.00,WeatherDisplay:10.37,2013-06-25 20:03:00,
2013-06-25 16:08:00,88.3,31.2,28.29,NE,35,0.0,0.0,13,0.00,CLR,OVC,0.00,WeatherDisplay:10.37,2013-06-25 20:08:00,
2013-06-25 16:13:00,89.2,30.0,28.29,West,275,0.0,0.0,12,0.00,CLR,OVC,0.00,WeatherDisplay:10.37,2013-06-25 20:13:00,
2013-06-25 16:18:00,89.4,30.1,28.29,West,275,0.0,0.0,12,0.00,CLR,OVC,0.00,WeatherDisplay:10.37,2013-06-25 20:18:00,
2013-06-25 16:23:00,89.4,30.1,28.29,ENE,62,2.2,3.5,12,0.00,CLR,OVC,0.00,WeatherDisplay:10.37,2013-06-25 20:23:00,
2013-06-25 16:28:00,90.5,30.9,28.29,ENE,62,2.2,3.5,12,0.00,CLR,OVC,0.00,WeatherDisplay:10.37,2013-06-25 20:28:00,
2013-06-25 16:33:00,90.3,30.8,28.29,West,265,2.7,3.5,12,0.00,CLR,OVC,0.00,WeatherDisplay:10.37,2013-06-25 20:33:00,
2013-06-25 16:38:00,90.7,31.1,28.29,South,187,3.6,3.6,12,0.00,CLR,OVC,0.00,WeatherDisplay:10.37,2013-06-25 20:38:00,
2013-06-25 16:43:00,90.9,31.2,28.29,WSW,244,0.0,2.7,12,0.00,CLR,OVC,0.00,WeatherDisplay:10.37,2013-06-25 20:43:00,
2013-06-25 16:48:00,91.0,31.4,28.29,WSW,244,0.0,2.3,12,0.00,CLR,OVC,0.00,WeatherDisplay:10.37,2013-06-25 20:48:00,
2013-06-25 16:53:00,91.4,31.6,28.29,NE,47,2.7,3.5,12,0.00,CLR,OVC,0.00,WeatherDisplay:10.37,2013-06-25 20:53:00,
2013-06-25 16:58:00,92.1,32.2,28.29,NNW,330,2.2,0.0,12,0.00,CLR,OVC,0.00,WeatherDisplay:10.37,2013-06-25 20:58:00,
2013-06-25 17:03:00,90.7,31.1,28.29,NNW,330,2.2,0.0,12,0.00,CLR,OVC,0.00,WeatherDisplay:10.37,2013-06-25 21:03:00,
2013-06-25 17:08:00,90.0,30.5,28.29,NNW,330,2.2,0.0,12,0.00,CLR,OVC,0.00,WeatherDisplay:10.37,2013-06-25 21:08:00,
2013-06-25 17:13:00,90.9,31.2,28.29,NNW,330,2.2,0.0,12,0.00,CLR,OVC,0.00,WeatherDisplay:10.37,2013-06-25 21:13:00,
2013-06-25 17:18:00,91.6,31.8,28.29,NNW,330,2.2,0.0,12,0.00,CLR,OVC,0.00,WeatherDisplay:10.37,2013-06-25 21:18:00,
2013-06-25 17:23:00,91.2,31.5,28.29,WNW,283,2.2,3.5,12,0.00,CLR,OVC,0.00,WeatherDisplay:10.37,2013-06-25 21:23:00,
2013-06-25 17:28:00,91.0,31.4,28.29,WNW,283,2.2,3.6,12,0.00,CLR,OVC,0.00,WeatherDisplay:10.37,2013-06-25 21:28:00,
2013-06-25 17:33:00,91.2,31.5,28.29,WNW,283,2.2,3.5,12,0.00,CLR,OVC,0.00,WeatherDisplay:10.37,2013-06-25 21:33:00,
2013-06-25 17:38:00,89.8,30.4,28.29,WNW,283,2.2,3.5,12,0.00,CLR,OVC,0.00,WeatherDisplay:10.37,2013-06-25 21:38:00,
2013-06-25 17:43:00,88.0,31.0,28.29,WNW,283,2.2,3.5,13,0.00,CLR,OVC,0.00,WeatherDisplay:10.37,2013-06-25 21:43:00,
2013-06-25 17:48:00,87.6,30.7,28.29,WNW,283,2.2,3.5,13,0.00,CLR,OVC,0.00,WeatherDisplay:10.37,2013-06-25 21:48:00,
2013-06-25 17:53:00,87.8,30.8,28.29,WNW,283,2.2,3.5,13,0.00,CLR,OVC,0.00,WeatherDisplay:10.37,2013-06-25 21:53:00,
2013-06-25 17:58:00,87.6,30.7,28.29,ESE,107,2.2,3.5,13,0.00,CLR,OVC,0.00,WeatherDisplay:10.37,2013-06-25 21:58:00,
2013-06-25 18:03:00,87.1,30.3,28.29,North,4,3.6,5.8,13,0.00,CLR,OVC,0.00,WeatherDisplay:10.37,2013-06-25 22:03:00,
2013-06-25 18:08:00,86.5,29.8,28.29,North,4,3.6,5.8,13,0.00,CLR,OVC,0.00,WeatherDisplay:10.37,2013-06-25 22:08:00,
2013-06-25 18:13:00,86.2,29.6,28.29,North,4,3.6,5.8,13,0.00,CLR,OVC,0.00,WeatherDisplay:10.37,2013-06-25 22:13:00,
2013-06-25 18:18:00,86.2,29.6,28.29,East,94,4.0,5.8,13,0.00,CLR,OVC,0.00,WeatherDisplay:10.37,2013-06-25 22:18:00,
2013-06-25 18:23:00,85.3,28.8,28.29,East,81,4.0,4.6,13,0.00,CLR,OVC,0.00,WeatherDisplay:10.37,2013-06-25 22:23:00,
2013-06-25 18:28:00,84.6,28.3,28.29,NNW,337,4.5,4.5,13,0.00,CLR,OVC,0.00,WeatherDisplay:10.37,2013-06-25 22:28:00,
2013-06-25 18:33:00,84.0,27.9,28.29,North,0,4.5,8.1,13,0.00,CLR,OVC,0.00,WeatherDisplay:10.37,2013-06-25 22:33:00,
2013-06-25 18:38:00,83.3,27.3,28.29,North,357,3.1,3.5,13,0.00,CLR,OVC,0.00,WeatherDisplay:10.37,2013-06-25 22:38:00,
2013-06-25 18:43:00,82.6,31.8,28.29,ENE,65,3.1,3.1,16,0.00,CLR,OVC,0.00,WeatherDisplay:10.37,2013-06-25 22:43:00,
2013-06-25 18:48:00,82.0,28.1,28.29,NE,55,2.7,3.5,14,0.00,CLR,OVC,0.00,WeatherDisplay:10.37,2013-06-25 22:48:00,
2013-06-25 18:53:00,81.3,32.3,28.29,North,349,3.1,3.5,17,0.00,CLR,OVC,0.00,WeatherDisplay:10.37,2013-06-25 22:53:00,
2013-06-25 18:58:00,80.6,31.7,28.29,ESE,108,3.1,3.6,17,0.00,CLR,OVC,0.00,WeatherDisplay:10.37,2013-06-25 22:58:00,
2013-06-25 19:03:00,79.9,31.2,28.29,ESE,109,3.6,4.9,17,0.00,CLR,OVC,0.00,WeatherDisplay:10.37,2013-06-25 23:03:00,
2013-06-25 19:08:00,79.5,34.9,28.29,NE,40,0.0,2.7,20,0.00,CLR,OVC,0.00,WeatherDisplay:10.37,2013-06-25 23:08:00,
2013-06-25 19:13:00,79.2,34.6,28.29,NE,40,0.0,2.3,20,0.00,CLR,OVC,0.00,WeatherDisplay:10.37,2013-06-25 23:13:00,
2013-06-25 19:18:00,79.0,34.5,28.29,ENE,62,0.0,4.6,20,0.00,CLR,OVC,0.00,WeatherDisplay:10.37,2013-06-25 23:18:00,
2013-06-25 19:23:00,79.0,34.5,28.29,ENE,62,0.0,4.6,20,0.00,CLR,OVC,0.00,WeatherDisplay:10.37,2013-06-25 23:23:00,
2013-06-25 19:28:00,79.0,34.5,28.29,NE,55,2.2,2.3,20,0.00,CLR,OVC,0.00,WeatherDisplay:10.37,2013-06-25 23:28:00,
2013-06-25 19:33:00,78.8,34.3,28.29,NE,56,0.0,3.5,20,0.00,CLR,OVC,0.00,WeatherDisplay:10.37,2013-06-25 23:33:00,
2013-06-25 19:38:00,79.2,34.6,28.29,NE,38,0.0,0.0,20,0.00,CLR,OVC,0.00,WeatherDisplay:10.37,2013-06-25 23:38:00,
2013-06-25 19:43:00,80.4,34.4,28.29,NNW,343,0.0,3.6,19,0.00,CLR,OVC,0.00,WeatherDisplay:10.37,2013-06-25 23:43:00,
2013-06-25 19:48:00,81.1,35.0,28.29,East,88,3.1,3.5,19,0.00,CLR,OVC,0.00,WeatherDisplay:10.37,2013-06-25 23:48:00,
2013-06-25 19:53:00,80.6,34.5,28.29,East,82,4.0,4.0,19,0.00,CLR,OVC,0.00,WeatherDisplay:10.37,2013-06-25 23:53:00,
2013-06-25 19:58:00,80.8,31.9,28.29,ENE,71,4.0,5.8,17,0.00,CLR,OVC,0.00,WeatherDisplay:10.37,2013-06-25 23:58:00,
2013-06-25 20:03:00,81.0,27.3,28.29,East,88,0.0,4.6,14,0.00,CLR,OVC,0.00,WeatherDisplay:10.37,2013-06-26 00:03:00,
2013-06-25 20:08:00,81.1,32.2,28.29,NE,42,3.1,3.5,17,0.00,CLR,OVC,0.00,WeatherDisplay:10.37,2013-06-26 00:08:00,
2013-06-25 20:13:00,80.8,31.9,28.29,NE,54,3.6,3.6,17,0.00,CLR,OVC,0.00,WeatherDisplay:10.37,2013-06-26 00:13:00,
2013-06-25 20:18:00,79.9,31.2,28.29,NNE,19,0.0,3.5,17,0.00,CLR,OVC,0.00,WeatherDisplay:10.37,2013-06-26 00:18:00,
2013-06-25 20:23:00,78.6,30.1,28.29,ENE,72,0.0,0.0,17,0.00,CLR,OVC,0.00,WeatherDisplay:10.37,2013-06-26 00:23:00,
2013-06-25 20:28:00,77.7,30.8,28.29,East,94,0.0,2.3,18,0.00,CLR,OVC,0.00,WeatherDisplay:10.37,2013-06-26 00:28:00,
2013-06-25 20:33:00,76.8,30.1,28.29,East,98,0.0,0.0,18,0.00,CLR,OVC,0.00,WeatherDisplay:10.37,2013-06-26 00:33:00,
2013-06-25 20:38:00,76.1,32.1,28.29,NNE,15,2.2,3.5,20,0.00,CLR,OVC,0.00,WeatherDisplay:10.37,2013-06-26 00:38:00,
2013-06-25 20:43:00,75.4,31.5,28.29,NE,47,0.0,4.6,20,0.00,CLR,OVC,0.00,WeatherDisplay:10.37,2013-06-26 00:43:00,
2013-06-25 20:48:00,74.7,30.9,28.29,NE,53,0.0,0.0,20,0.00,CLR,OVC,0.00,WeatherDisplay:10.37,2013-06-26 00:48:00,
2013-06-25 20:53:00,74.1,31.7,28.29,NNE,15,0.0,0.0,21,0.00,CLR,OVC,0.00,WeatherDisplay:10.37,2013-06-26 00:53:00,
2013-06-25 20:58:00,73.6,31.2,28.29,NNE,15,0.0,0.0,21,0.00,CLR,OVC,0.00,WeatherDisplay:10.37,2013-06-26 00:58:00,
2013-06-25 21:03:00,73.0,30.8,28.29,East,83,0.0,0.0,21,0.00,CLR,OVC,0.00,WeatherDisplay:10.37,2013-06-26 01:03:00,
2013-06-25 21:08:00,72.3,33.5,28.29,East,83,0.0,0.0,24,0.00,CLR,OVC,0.00,WeatherDisplay:10.37,2013-06-26 01:08:00,
2013-06-25 21:13:00,71.6,32.9,28.29,East,83,0.0,2.3,24,0.00,CLR,OVC,0.00,WeatherDisplay:10.37,2013-06-26 01:13:00,
2013-06-25 21:18:00,71.1,33.4,28.29,East,91,0.0,0.0,25,0.00,CLR,OVC,0.00,WeatherDisplay:10.37,2013-06-26 01:18:00,
2013-06-25 21:23:00,70.5,34.0,28.29,East,101,0.0,2.3,26,0.00,CLR,OVC,0.00,WeatherDisplay:10.37,2013-06-26 01:23:00,
2013-06-25 21:28:00,70.3,37.4,28.29,East,98,0.0,0.0,30,0.00,CLR,OVC,0.00,WeatherDisplay:10.37,2013-06-26 01:28:00,
2013-06-25 21:33:00,70.2,35.5,28.29,East,94,0.0,0.0,28,0.00,CLR,OVC,0.00,WeatherDisplay:10.37,2013-06-26 01:33:00,
2013-06-25 21:38:00,69.6,35.0,28.29,East,94,2.2,2.3,28,0.00,CLR,OVC,0.00,WeatherDisplay:10.37,2013-06-26 01:38:00,
2013-06-25 21:43:00,69.4,34.0,28.29,ESE,109,0.0,0.0,27,0.00,CLR,OVC,0.00,WeatherDisplay:10.37,2013-06-26 01:43:00,
2013-06-25 21:48:00,69.3,35.6,28.29,East,94,0.0,0.0,29,0.00,CLR,OVC,0.00,WeatherDisplay:10.37,2013-06-26 01:48:00,
2013-06-25 21:53:00,68.7,36.0,28.29,ENE,72,0.0,0.0,30,0.00,CLR,OVC,0.00,WeatherDisplay:10.37,2013-06-26 01:53:00,
2013-06-25 21:58:00,68.2,36.4,28.29,East,88,0.0,0.0,31,0.00,CLR,OVC,0.00,WeatherDisplay:10.37,2013-06-26 01:58:00,
2013-06-25 22:03:00,67.6,35.9,28.29,East,83,0.0,0.0,31,0.00,CLR,OVC,0.00,WeatherDisplay:10.37,2013-06-26 02:03:00,
2013-06-25 22:08:00,67.3,36.4,28.29,East,83,0.0,0.0,32,0.00,CLR,OVC,0.00,WeatherDisplay:10.37,2013-06-26 02:08:00,
2013-06-25 22:13:00,66.7,36.7,28.29,East,83,0.0,0.0,33,0.00,CLR,OVC,0.00,WeatherDisplay:10.37,2013-06-26 02:13:00,
2013-06-25 22:18:00,66.2,37.0,28.29,East,83,0.0,0.0,34,0.00,CLR,OVC,0.00,WeatherDisplay:10.37,2013-06-26 02:18:00,
2013-06-25 22:23:00,65.8,36.7,28.29,East,83,0.0,0.0,34,0.00,CLR,OVC,0.00,WeatherDisplay:10.37,2013-06-26 02:23:00,
2013-06-25 22:28:00,65.3,36.2,28.29,East,83,0.0,0.0,34,0.00,CLR,OVC,0.00,WeatherDisplay:10.37,2013-06-26 02:28:00,
2013-06-25 22:33:00,64.8,37.2,28.29,East,83,0.0,0.0,36,0.00,CLR,OVC,0.00,WeatherDisplay:10.37,2013-06-26 02:33:00,
2013-06-25 22:38:00,64.2,36.0,28.32,East,83,0.0,0.0,35,0.00,CLR,OVC,0.00,WeatherDisplay:10.37,2013-06-26 02:38:00,
2013-06-25 22:43:00,63.5,35.3,28.32,East,83,0.0,0.0,35,0.00,CLR,OVC,0.00,WeatherDisplay:10.37,2013-06-26 02:43:00,
2013-06-25 22:48:00,63.0,35.6,28.32,East,84,0.0,0.0,36,0.00,CLR,OVC,0.00,WeatherDisplay:10.37,2013-06-26 02:48:00,
2013-06-25 22:53:00,62.6,35.9,28.32,East,84,0.0,0.0,37,0.00,CLR,OVC,0.00,WeatherDisplay:10.37,2013-06-26 02:53:00,
2013-06-25 22:58:00,62.2,37.6,28.32,East,84,0.0,0.0,40,0.00,CLR,OVC,0.00,WeatherDisplay:10.37,2013-06-26 02:58:00,
2013-06-25 23:03:00,62.2,38.8,28.32,East,84,0.0,0.0,42,0.00,CLR,OVC,0.00,WeatherDisplay:10.37,2013-06-26 03:03:00,
2013-06-25 23:08:00,62.2,40.0,28.32,East,84,0.0,0.0,44,0.00,CLR,OVC,0.00,WeatherDisplay:10.37,2013-06-26 03:08:00,
2013-06-25 23:13:00,62.2,40.6,28.32,East,84,0.0,0.0,45,0.00,CLR,OVC,0.00,WeatherDisplay:10.37,2013-06-26 03:13:00,
2013-06-25 23:18:00,62.2,40.6,28.32,East,84,0.0,0.0,45,0.00,CLR,OVC,0.00,WeatherDisplay:10.37,2013-06-26 03:18:00,
2013-06-25 23:23:00,62.1,40.5,28.32,East,84,0.0,0.0,45,0.00,CLR,OVC,0.00,WeatherDisplay:10.37,2013-06-26 03:23:00,
2013-06-25 23:28:00,61.7,40.1,28.32,East,84,0.0,0.0,45,0.00,CLR,OVC,0.00,WeatherDisplay:10.37,2013-06-26 03:28:00,
2013-06-25 23:33:00,61.7,42.3,28.32,East,84,0.0,0.0,49,0.00,CLR,OVC,0.00,WeatherDisplay:10.37,2013-06-26 03:33:00,
2013-06-25 23:38:00,61.5,41.6,28.29,East,84,0.0,0.0,48,0.00,CLR,OVC,0.00,WeatherDisplay:10.37,2013-06-26 03:38:00,
2013-06-25 23:43:00,61.2,41.3,28.29,East,84,0.0,0.0,48,0.00,CLR,OVC,0.00,WeatherDisplay:10.37,2013-06-26 03:43:00,
2013-06-25 23:48:00,60.8,40.4,28.29,East,84,0.0,0.0,47,0.00,CLR,OVC,0.00,WeatherDisplay:10.37,2013-06-26 03:48:00,
2013-06-25 23:53:00,60.4,40.1,28.29,East,84,0.0,0.0,47,0.00,CLR,OVC,0.00,WeatherDisplay:10.37,2013-06-26 03:53:00,
2013-06-25 23:58:00,60.1,39.8,28.29,East,84,0.0,0.0,47,0.00,CLR,OVC,0.00,WeatherDisplay:10.37,2013-06-26 03:58:00,